Fort Davis, TX (79734)

1:25 AM CDT on August 31, 2014 (GMT -0500)
RAWS FORT DAVIS TX US | Change Station
CLOSE
Current Station
Personal Weather Station
Location: Fort Davis, TX
Elevation: 4764 ft
Nearby Weather Stations

Elev 4764 ft 30.60 °N, 103.89 °W | Updated 22 minutes ago

Partly Cloudy
Partly Cloudy
72 °F
Feels Like 77 °F
N
1
Wind Variable Wind from NW
Gusts 5.0 mph

Today
High -- | Low -- °F
--% Chance of Precip.
Yesterday
High -- | Low -- °F
Precip. -- in
7:31 AM 8:19 PM
Waxing Crescent, 28% visible
Pressure 30.14 in
Visibility 9.0 miles
Clouds Clear
Heat Index 77 °F
Dew Point 53 °F
Humidity 51%
Rainfall 0.00 in
Snow Depth Not available.
UV 0 out of 12
Pollen 10.00 out of 12
Air Quality Not available.
Flu Activity Not available.
METAR KMRF 310615Z AUTO 06003KT 9SM CLR 21/13 A3014 RMK AO1

More Conditions Fewer Conditions

Pressure 30.14 in
Visibility 9.0 miles
Clouds Clear
Heat Index 77 °F
Dew Point 53 °F
Humidity 51%
Rainfall 0.00 in
Snow Depth Not available.
UV 0 out of 12
Pollen 10.00 out of 12
Air Quality Not available.
Flu Activity Not available.
METAR KMRF 310615Z AUTO 06003KT 9SM CLR 21/13 A3014 RMK AO1

More Conditions Fewer Conditions

10-Day Weather Forecast

Almanac

Astronomy

Aug. 31, 2014 Rise Set
Actual Time 7:31 AM CDT 8:19 PM CDT
Civil Twilight 7:06 AM CDT 8:44 PM CDT
Nautical Twilight 6:38 AM CDT 9:13 PM CDT
Astronomical Twilight 6:08 AM CDT 9:42 PM CDT
Moon 12:55 PM CDT No Moon Set
Length of Visible Light 13h 37m
Length of Day
12h 48m
Tomorrow will be 1m 46s shorter.
Waxing Crescent, 28% of the Moon is Illuminated
Today
Waxing Crescent
Sep 2
First Quarter
Sep 8
Full
Sep 15
Last Quarter
Sep 24
New

Today's Extremes

State Highs State Lows

Community

WunderPhotos

Upload Photos

1,748,801 photos uploaded!

Nearby

Snow Depth

Station Depth Elevation
No new snow has been reported.

Earthquake Activity

City Distance Mag. Time & Date
No recent earthquake activity has been reported nearby.
Minimum magnitude displayed is 2.5.

Coastal Water Temperatures

Place Temperature
No Stations Reporting

Nearby Weather Stations